sensor_id;sensor_type;location;lat;lon;timestamp;P1;durP1;ratioP1;P2;durP2;ratioP2
8466;SDS011;4270;48.148;11.648;2023-04-28T00:00:18;9.43;;;5.57;;
8466;SDS011;4270;48.148;11.648;2023-04-28T00:02:43;7.03;;;5.40;;
8466;SDS011;4270;48.148;11.648;2023-04-28T00:05:10;10.90;;;5.20;;
8466;SDS011;4270;48.148;11.648;2023-04-28T00:07:36;5.90;;;4.80;;
8466;SDS011;4270;48.148;11.648;2023-04-28T00:10:01;8.87;;;5.30;;
8466;SDS011;4270;48.148;11.648;2023-04-28T00:12:26;6.60;;;5.17;;
8466;SDS011;4270;48.148;11.648;2023-04-28T00:14:52;6.57;;;5.03;;
8466;SDS011;4270;48.148;11.648;2023-04-28T00:17:17;4.87;;;4.37;;
8466;SDS011;4270;48.148;11.648;2023-04-28T00:19:42;6.97;;;5.30;;
8466;SDS011;4270;48.148;11.648;2023-04-28T00:22:07;6.13;;;4.73;;
8466;SDS011;4270;48.148;11.648;2023-04-28T00:24:33;6.70;;;4.50;;
8466;SDS011;4270;48.148;11.648;2023-04-28T00:27:00;10.03;;;5.03;;
8466;SDS011;4270;48.148;11.648;2023-04-28T00:29:27;6.00;;;4.57;;
8466;SDS011;4270;48.148;11.648;2023-04-28T00:31:53;6.10;;;4.70;;
8466;SDS011;4270;48.148;11.648;2023-04-28T00:34:18;4.07;;;3.67;;
8466;SDS011;4270;48.148;11.648;2023-04-28T00:36:43;6.13;;;4.00;;
8466;SDS011;4270;48.148;11.648;2023-04-28T00:39:08;5.10;;;3.77;;
8466;SDS011;4270;48.148;11.648;2023-04-28T00:41:34;4.70;;;4.07;;
8466;SDS011;4270;48.148;11.648;2023-04-28T00:43:59;8.07;;;4.30;;
8466;SDS011;4270;48.148;11.648;2023-04-28T00:46:26;3.70;;;3.10;;
8466;SDS011;4270;48.148;11.648;2023-04-28T00:48:53;4.60;;;3.90;;
8466;SDS011;4270;48.148;11.648;2023-04-28T00:51:18;4.67;;;3.60;;
8466;SDS011;4270;48.148;11.648;2023-04-28T00:53:43;4.80;;;2.90;;
8466;SDS011;4270;48.148;11.648;2023-04-28T00:56:09;4.00;;;3.07;;
8466;SDS011;4270;48.148;11.648;2023-04-28T00:58:34;3.90;;;3.03;;
8466;SDS011;4270;48.148;11.648;2023-04-28T01:01:07;4.10;;;3.10;;
8466;SDS011;4270;48.148;11.648;2023-04-28T01:03:33;4.10;;;3.60;;
8466;SDS011;4270;48.148;11.648;2023-04-28T01:05:58;5.53;;;3.17;;
8466;SDS011;4270;48.148;11.648;2023-04-28T01:08:27;3.70;;;2.70;;
8466;SDS011;4270;48.148;11.648;2023-04-28T01:10:52;4.90;;;3.03;;
8466;SDS011;4270;48.148;11.648;2023-04-28T01:13:17;3.67;;;2.67;;
8466;SDS011;4270;48.148;11.648;2023-04-28T01:15:42;4.63;;;3.30;;
8466;SDS011;4270;48.148;11.648;2023-04-28T01:18:07;3.67;;;2.90;;
8466;SDS011;4270;48.148;11.648;2023-04-28T01:20:33;3.73;;;3.00;;
8466;SDS011;4270;48.148;11.648;2023-04-28T01:22:58;2.63;;;2.43;;
8466;SDS011;4270;48.148;11.648;2023-04-28T01:25:23;3.87;;;2.90;;
8466;SDS011;4270;48.148;11.648;2023-04-28T01:27:48;3.63;;;3.33;;
8466;SDS011;4270;48.148;11.648;2023-04-28T01:30:13;3.77;;;2.80;;
8466;SDS011;4270;48.148;11.648;2023-04-28T01:32:38;3.63;;;2.40;;
8466;SDS011;4270;48.148;11.648;2023-04-28T01:35:04;7.17;;;3.20;;
8466;SDS011;4270;48.148;11.648;2023-04-28T01:37:29;2.50;;;2.23;;
8466;SDS011;4270;48.148;11.648;2023-04-28T01:39:54;3.80;;;2.17;;
8466;SDS011;4270;48.148;11.648;2023-04-28T01:42:19;3.33;;;2.83;;
8466;SDS011;4270;48.148;11.648;2023-04-28T01:44:45;5.37;;;3.30;;
8466;SDS011;4270;48.148;11.648;2023-04-28T01:47:10;3.57;;;2.53;;
8466;SDS011;4270;48.148;11.648;2023-04-28T01:49:35;4.60;;;2.43;;
8466;SDS011;4270;48.148;11.648;2023-04-28T01:52:00;5.03;;;3.17;;
8466;SDS011;4270;48.148;11.648;2023-04-28T01:54:25;3.10;;;2.33;;
8466;SDS011;4270;48.148;11.648;2023-04-28T01:56:51;3.17;;;2.87;;
8466;SDS011;4270;48.148;11.648;2023-04-28T01:59:16;4.43;;;2.70;;
8466;SDS011;4270;48.148;11.648;2023-04-28T02:01:43;3.33;;;2.33;;
8466;SDS011;4270;48.148;11.648;2023-04-28T02:04:09;3.93;;;2.90;;
8466;SDS011;4270;48.148;11.648;2023-04-28T02:06:34;4.53;;;2.90;;
8466;SDS011;4270;48.148;11.648;2023-04-28T02:08:59;6.03;;;3.30;;
8466;SDS011;4270;48.148;11.648;2023-04-28T02:11:24;4.10;;;2.77;;
8466;SDS011;4270;48.148;11.648;2023-04-28T02:13:49;3.53;;;2.53;;
8466;SDS011;4270;48.148;11.648;2023-04-28T02:16:15;3.03;;;2.70;;
8466;SDS011;4270;48.148;11.648;2023-04-28T02:18:40;3.60;;;2.87;;
8466;SDS011;4270;48.148;11.648;2023-04-28T02:21:08;3.10;;;2.80;;
8466;SDS011;4270;48.148;11.648;2023-04-28T02:23:35;4.23;;;2.70;;
8466;SDS011;4270;48.148;11.648;2023-04-28T02:26:00;3.53;;;3.07;;
8466;SDS011;4270;48.148;11.648;2023-04-28T02:28:26;2.90;;;2.53;;
8466;SDS011;4270;48.148;11.648;2023-04-28T02:30:51;3.70;;;2.50;;
8466;SDS011;4270;48.148;11.648;2023-04-28T02:33:16;3.37;;;2.50;;
8466;SDS011;4270;48.148;11.648;2023-04-28T02:35:42;3.47;;;2.60;;
8466;SDS011;4270;48.148;11.648;2023-04-28T02:38:07;5.30;;;2.80;;
8466;SDS011;4270;48.148;11.648;2023-04-28T02:40:32;3.87;;;2.90;;
8466;SDS011;4270;48.148;11.648;2023-04-28T02:42:57;3.67;;;2.90;;
8466;SDS011;4270;48.148;11.648;2023-04-28T02:45:22;5.23;;;2.90;;
8466;SDS011;4270;48.148;11.648;2023-04-28T02:47:48;2.97;;;2.33;;
8466;SDS011;4270;48.148;11.648;2023-04-28T02:50:13;7.67;;;2.63;;
8466;SDS011;4270;48.148;11.648;2023-04-28T02:52:38;4.27;;;2.73;;
8466;SDS011;4270;48.148;11.648;2023-04-28T02:55:03;3.87;;;3.23;;
8466;SDS011;4270;48.148;11.648;2023-04-28T02:57:29;3.10;;;2.80;;
8466;SDS011;4270;48.148;11.648;2023-04-28T02:59:54;4.87;;;3.10;;
8466;SDS011;4270;48.148;11.648;2023-04-28T03:02:19;6.70;;;3.10;;
8466;SDS011;4270;48.148;11.648;2023-04-28T03:04:46;3.23;;;2.77;;
8466;SDS011;4270;48.148;11.648;2023-04-28T03:07:12;2.90;;;2.40;;
8466;SDS011;4270;48.148;11.648;2023-04-28T03:09:37;3.33;;;3.00;;
8466;SDS011;4270;48.148;11.648;2023-04-28T03:12:02;4.27;;;2.10;;
8466;SDS011;4270;48.148;11.648;2023-04-28T03:14:27;4.50;;;3.07;;
8466;SDS011;4270;48.148;11.648;2023-04-28T03:16:52;3.47;;;2.53;;
8466;SDS011;4270;48.148;11.648;2023-04-28T03:19:17;2.77;;;2.30;;
8466;SDS011;4270;48.148;11.648;2023-04-28T03:21:43;2.67;;;2.47;;
8466;SDS011;4270;48.148;11.648;2023-04-28T03:24:08;2.77;;;2.47;;
8466;SDS011;4270;48.148;11.648;2023-04-28T03:26:33;2.70;;;2.40;;
8466;SDS011;4270;48.148;11.648;2023-04-28T03:28:58;4.17;;;2.47;;
8466;SDS011;4270;48.148;11.648;2023-04-28T03:31:24;2.83;;;2.53;;
8466;SDS011;4270;48.148;11.648;2023-04-28T03:33:49;2.60;;;2.40;;
8466;SDS011;4270;48.148;11.648;2023-04-28T03:36:14;3.23;;;2.30;;
8466;SDS011;4270;48.148;11.648;2023-04-28T03:38:40;3.20;;;2.60;;
8466;SDS011;4270;48.148;11.648;2023-04-28T03:41:05;3.80;;;2.40;;
8466;SDS011;4270;48.148;11.648;2023-04-28T03:43:30;3.43;;;2.70;;
8466;SDS011;4270;48.148;11.648;2023-04-28T03:45:57;2.77;;;2.33;;
8466;SDS011;4270;48.148;11.648;2023-04-28T03:48:22;3.77;;;2.63;;
8466;SDS011;4270;48.148;11.648;2023-04-28T03:50:47;3.77;;;2.47;;
8466;SDS011;4270;48.148;11.648;2023-04-28T03:53:12;2.33;;;2.10;;
8466;SDS011;4270;48.148;11.648;2023-04-28T03:55:37;3.07;;;2.27;;
8466;SDS011;4270;48.148;11.648;2023-04-28T03:58:03;2.20;;;2.00;;
8466;SDS011;4270;48.148;11.648;2023-04-28T04:00:28;3.57;;;2.40;;
8466;SDS011;4270;48.148;11.648;2023-04-28T04:02:53;5.07;;;2.80;;
8466;SDS011;4270;48.148;11.648;2023-04-28T04:05:18;3.80;;;2.70;;
8466;SDS011;4270;48.148;11.648;2023-04-28T04:07:43;3.37;;;2.80;;
8466;SDS011;4270;48.148;11.648;2023-04-28T04:10:09;5.40;;;2.07;;
8466;SDS011;4270;48.148;11.648;2023-04-28T04:12:34;6.20;;;2.73;;
8466;SDS011;4270;48.148;11.648;2023-04-28T04:14:59;2.73;;;2.53;;
8466;SDS011;4270;48.148;11.648;2023-04-28T04:17:24;3.13;;;2.40;;
8466;SDS011;4270;48.148;11.648;2023-04-28T04:19:50;2.73;;;2.43;;
8466;SDS011;4270;48.148;11.648;2023-04-28T04:22:15;3.20;;;2.43;;
8466;SDS011;4270;48.148;11.648;2023-04-28T04:24:40;3.40;;;3.10;;
8466;SDS011;4270;48.148;11.648;2023-04-28T04:27:05;3.20;;;2.83;;
8466;SDS011;4270;48.148;11.648;2023-04-28T04:29:31;3.33;;;3.03;;
8466;SDS011;4270;48.148;11.648;2023-04-28T04:31:56;4.10;;;3.70;;
8466;SDS011;4270;48.148;11.648;2023-04-28T04:34:21;10.03;;;3.10;;
8466;SDS011;4270;48.148;11.648;2023-04-28T04:36:46;4.90;;;2.93;;
8466;SDS011;4270;48.148;11.648;2023-04-28T04:39:11;3.37;;;3.07;;
8466;SDS011;4270;48.148;11.648;2023-04-28T04:41:37;4.27;;;3.00;;
8466;SDS011;4270;48.148;11.648;2023-04-28T04:44:02;4.90;;;3.47;;
8466;SDS011;4270;48.148;11.648;2023-04-28T04:46:28;4.80;;;3.57;;
8466;SDS011;4270;48.148;11.648;2023-04-28T04:48:53;5.73;;;3.93;;
8466;SDS011;4270;48.148;11.648;2023-04-28T04:51:18;6.53;;;3.90;;
8466;SDS011;4270;48.148;11.648;2023-04-28T04:53:43;5.28;;;4.18;;
8466;SDS011;4270;48.148;11.648;2023-04-28T04:56:09;6.07;;;4.63;;
8466;SDS011;4270;48.148;11.648;2023-04-28T04:58:34;7.60;;;5.97;;
8466;SDS011;4270;48.148;11.648;2023-04-28T05:00:59;7.03;;;4.60;;
8466;SDS011;4270;48.148;11.648;2023-04-28T05:03:25;6.37;;;5.13;;
8466;SDS011;4270;48.148;11.648;2023-04-28T05:05:50;6.03;;;5.13;;
8466;SDS011;4270;48.148;11.648;2023-04-28T05:08:15;6.63;;;4.23;;
8466;SDS011;4270;48.148;11.648;2023-04-28T05:10:40;6.83;;;4.90;;
8466;SDS011;4270;48.148;11.648;2023-04-28T05:13:05;5.77;;;4.90;;
8466;SDS011;4270;48.148;11.648;2023-04-28T05:15:31;6.10;;;4.50;;
8466;SDS011;4270;48.148;11.648;2023-04-28T05:17:56;5.40;;;3.60;;
8466;SDS011;4270;48.148;11.648;2023-04-28T05:20:22;6.00;;;4.47;;
8466;SDS011;4270;48.148;11.648;2023-04-28T05:22:47;4.50;;;4.00;;
8466;SDS011;4270;48.148;11.648;2023-04-28T05:25:12;10.20;;;4.83;;
8466;SDS011;4270;48.148;11.648;2023-04-28T05:27:37;7.00;;;4.90;;
8466;SDS011;4270;48.148;11.648;2023-04-28T05:30:06;4.70;;;4.20;;
8466;SDS011;4270;48.148;11.648;2023-04-28T05:32:31;8.17;;;4.53;;
8466;SDS011;4270;48.148;11.648;2023-04-28T05:34:56;8.60;;;4.30;;
8466;SDS011;4270;48.148;11.648;2023-04-28T05:37:21;7.20;;;4.37;;
8466;SDS011;4270;48.148;11.648;2023-04-28T05:39:47;5.00;;;4.33;;
8466;SDS011;4270;48.148;11.648;2023-04-28T05:42:12;6.90;;;4.70;;
8466;SDS011;4270;48.148;11.648;2023-04-28T05:44:37;5.90;;;5.10;;
8466;SDS011;4270;48.148;11.648;2023-04-28T05:47:02;6.93;;;4.30;;
8466;SDS011;4270;48.148;11.648;2023-04-28T05:49:27;5.00;;;4.27;;
8466;SDS011;4270;48.148;11.648;2023-04-28T05:51:52;7.73;;;4.67;;
8466;SDS011;4270;48.148;11.648;2023-04-28T05:54:18;17.05;;;4.72;;
8466;SDS011;4270;48.148;11.648;2023-04-28T05:56:43;4.33;;;3.60;;
8466;SDS011;4270;48.148;11.648;2023-04-28T05:59:08;5.20;;;3.80;;
8466;SDS011;4270;48.148;11.648;2023-04-28T06:01:34;5.73;;;3.43;;
8466;SDS011;4270;48.148;11.648;2023-04-28T06:03:59;4.73;;;3.43;;
8466;SDS011;4270;48.148;11.648;2023-04-28T06:06:24;2.87;;;2.63;;
8466;SDS011;4270;48.148;11.648;2023-04-28T06:08:50;2.93;;;2.50;;
8466;SDS011;4270;48.148;11.648;2023-04-28T06:11:15;3.20;;;2.90;;
8466;SDS011;4270;48.148;11.648;2023-04-28T06:13:43;3.33;;;3.03;;
8466;SDS011;4270;48.148;11.648;2023-04-28T06:16:08;3.50;;;3.20;;
8466;SDS011;4270;48.148;11.648;2023-04-28T06:18:33;4.93;;;2.73;;
8466;SDS011;4270;48.148;11.648;2023-04-28T06:20:58;2.57;;;2.37;;
8466;SDS011;4270;48.148;11.648;2023-04-28T06:23:23;5.50;;;2.90;;
8466;SDS011;4270;48.148;11.648;2023-04-28T06:25:49;3.93;;;2.57;;
8466;SDS011;4270;48.148;11.648;2023-04-28T06:28:14;5.03;;;3.40;;
8466;SDS011;4270;48.148;11.648;2023-04-28T06:30:39;3.00;;;2.57;;
8466;SDS011;4270;48.148;11.648;2023-04-28T06:33:05;4.27;;;2.90;;
8466;SDS011;4270;48.148;11.648;2023-04-28T06:35:30;4.17;;;2.90;;
8466;SDS011;4270;48.148;11.648;2023-04-28T06:37:55;4.30;;;2.57;;
8466;SDS011;4270;48.148;11.648;2023-04-28T06:40:21;5.73;;;3.13;;
8466;SDS011;4270;48.148;11.648;2023-04-28T06:42:46;4.00;;;2.70;;
8466;SDS011;4270;48.148;11.648;2023-04-28T06:45:12;3.33;;;2.70;;
8466;SDS011;4270;48.148;11.648;2023-04-28T06:47:37;2.80;;;2.30;;
8466;SDS011;4270;48.148;11.648;2023-04-28T06:50:04;2.60;;;2.40;;
8466;SDS011;4270;48.148;11.648;2023-04-28T06:52:29;3.50;;;2.77;;
8466;SDS011;4270;48.148;11.648;2023-04-28T06:54:55;2.60;;;2.20;;
8466;SDS011;4270;48.148;11.648;2023-04-28T06:57:20;3.43;;;1.90;;
8466;SDS011;4270;48.148;11.648;2023-04-28T06:59:45;3.20;;;2.50;;
8466;SDS011;4270;48.148;11.648;2023-04-28T07:02:10;3.00;;;2.03;;
8466;SDS011;4270;48.148;11.648;2023-04-28T07:04:35;2.30;;;2.10;;
8466;SDS011;4270;48.148;11.648;2023-04-28T07:07:01;3.43;;;2.23;;
8466;SDS011;4270;48.148;11.648;2023-04-28T07:09:26;2.20;;;2.00;;
8466;SDS011;4270;48.148;11.648;2023-04-28T07:11:51;2.50;;;1.90;;
8466;SDS011;4270;48.148;11.648;2023-04-28T07:14:16;2.10;;;1.90;;
8466;SDS011;4270;48.148;11.648;2023-04-28T07:16:41;4.53;;;2.30;;
8466;SDS011;4270;48.148;11.648;2023-04-28T07:19:07;3.80;;;1.83;;
8466;SDS011;4270;48.148;11.648;2023-04-28T07:21:32;3.63;;;2.13;;
8466;SDS011;4270;48.148;11.648;2023-04-28T07:23:58;2.40;;;1.67;;
8466;SDS011;4270;48.148;11.648;2023-04-28T07:26:23;3.33;;;1.87;;
8466;SDS011;4270;48.148;11.648;2023-04-28T07:28:48;1.90;;;1.60;;
8466;SDS011;4270;48.148;11.648;2023-04-28T07:31:13;3.65;;;1.88;;
8466;SDS011;4270;48.148;11.648;2023-04-28T07:33:39;2.50;;;1.30;;
8466;SDS011;4270;48.148;11.648;2023-04-28T07:36:04;1.57;;;1.47;;
8466;SDS011;4270;48.148;11.648;2023-04-28T07:38:29;1.63;;;1.53;;
8466;SDS011;4270;48.148;11.648;2023-04-28T07:40:55;2.83;;;1.90;;
8466;SDS011;4270;48.148;11.648;2023-04-28T07:43:20;7.47;;;2.27;;
8466;SDS011;4270;48.148;11.648;2023-04-28T07:45:45;1.80;;;1.40;;
8466;SDS011;4270;48.148;11.648;2023-04-28T07:48:13;1.57;;;1.43;;
8466;SDS011;4270;48.148;11.648;2023-04-28T07:50:38;2.20;;;1.50;;
8466;SDS011;4270;48.148;11.648;2023-04-28T07:53:03;1.70;;;1.60;;
8466;SDS011;4270;48.148;11.648;2023-04-28T07:55:28;3.83;;;1.83;;
8466;SDS011;4270;48.148;11.648;2023-04-28T07:57:53;2.13;;;1.63;;
8466;SDS011;4270;48.148;11.648;2023-04-28T08:00:19;2.27;;;2.07;;
8466;SDS011;4270;48.148;11.648;2023-04-28T08:02:44;1.70;;;1.60;;
8466;SDS011;4270;48.148;11.648;2023-04-28T08:05:09;1.50;;;1.30;;
8466;SDS011;4270;48.148;11.648;2023-04-28T08:07:35;1.90;;;1.53;;
8466;SDS011;4270;48.148;11.648;2023-04-28T08:10:02;2.10;;;1.67;;
8466;SDS011;4270;48.148;11.648;2023-04-28T08:12:27;1.90;;;1.50;;
8466;SDS011;4270;48.148;11.648;2023-04-28T08:14:52;1.67;;;1.50;;
8466;SDS011;4270;48.148;11.648;2023-04-28T08:17:17;4.07;;;2.07;;
8466;SDS011;4270;48.148;11.648;2023-04-28T08:19:42;1.63;;;1.37;;
8466;SDS011;4270;48.148;11.648;2023-04-28T08:22:10;3.80;;;2.20;;
8466;SDS011;4270;48.148;11.648;2023-04-28T08:24:35;1.83;;;1.70;;
8466;SDS011;4270;48.148;11.648;2023-04-28T08:27:01;2.13;;;1.63;;
8466;SDS011;4270;48.148;11.648;2023-04-28T08:29:27;2.13;;;1.50;;
8466;SDS011;4270;48.148;11.648;2023-04-28T08:31:52;4.93;;;1.90;;
8466;SDS011;4270;48.148;11.648;2023-04-28T08:34:17;2.70;;;1.57;;
8466;SDS011;4270;48.148;11.648;2023-04-28T08:36:43;3.00;;;1.70;;
8466;SDS011;4270;48.148;11.648;2023-04-28T08:39:08;3.23;;;2.00;;
8466;SDS011;4270;48.148;11.648;2023-04-28T08:41:33;3.03;;;2.37;;
8466;SDS011;4270;48.148;11.648;2023-04-28T08:44:01;2.40;;;2.00;;
8466;SDS011;4270;48.148;11.648;2023-04-28T08:46:30;2.27;;;1.80;;
8466;SDS011;4270;48.148;11.648;2023-04-28T08:48:58;2.90;;;1.90;;
8466;SDS011;4270;48.148;11.648;2023-04-28T08:51:26;2.60;;;1.77;;
8466;SDS011;4270;48.148;11.648;2023-04-28T08:53:55;2.60;;;1.87;;
8466;SDS011;4270;48.148;11.648;2023-04-28T08:56:23;2.90;;;1.70;;
8466;SDS011;4270;48.148;11.648;2023-04-28T08:58:49;2.63;;;1.93;;
8466;SDS011;4270;48.148;11.648;2023-04-28T09:01:14;6.30;;;2.60;;
8466;SDS011;4270;48.148;11.648;2023-04-28T09:03:39;1.97;;;1.77;;
8466;SDS011;4270;48.148;11.648;2023-04-28T09:06:05;1.60;;;1.50;;
8466;SDS011;4270;48.148;11.648;2023-04-28T09:08:30;3.57;;;1.80;;
8466;SDS011;4270;48.148;11.648;2023-04-28T09:11:05;3.27;;;1.83;;
8466;SDS011;4270;48.148;11.648;2023-04-28T09:13:31;3.20;;;1.90;;
8466;SDS011;4270;48.148;11.648;2023-04-28T09:16:00;2.83;;;1.70;;
8466;SDS011;4270;48.148;11.648;2023-04-28T09:18:26;2.73;;;2.00;;
8466;SDS011;4270;48.148;11.648;2023-04-28T09:20:51;2.30;;;1.60;;
8466;SDS011;4270;48.148;11.648;2023-04-28T09:23:26;1.67;;;1.57;;
8466;SDS011;4270;48.148;11.648;2023-04-28T09:25:55;3.40;;;1.60;;
8466;SDS011;4270;48.148;11.648;2023-04-28T09:28:20;2.33;;;1.60;;
8466;SDS011;4270;48.148;11.648;2023-04-28T09:30:46;1.70;;;1.53;;
8466;SDS011;4270;48.148;11.648;2023-04-28T09:33:11;4.20;;;1.90;;
8466;SDS011;4270;48.148;11.648;2023-04-28T09:35:40;2.50;;;1.47;;
8466;SDS011;4270;48.148;11.648;2023-04-28T09:38:06;2.30;;;1.50;;
8466;SDS011;4270;48.148;11.648;2023-04-28T09:40:31;4.60;;;1.90;;
8466;SDS011;4270;48.148;11.648;2023-04-28T09:42:57;2.20;;;1.60;;
8466;SDS011;4270;48.148;11.648;2023-04-28T09:45:22;3.53;;;1.65;;
8466;SDS011;4270;48.148;11.648;2023-04-28T09:47:48;2.63;;;1.57;;
8466;SDS011;4270;48.148;11.648;2023-04-28T09:50:14;3.90;;;1.77;;
8466;SDS011;4270;48.148;11.648;2023-04-28T09:52:41;2.13;;;1.93;;
8466;SDS011;4270;48.148;11.648;2023-04-28T09:55:06;6.13;;;2.20;;
8466;SDS011;4270;48.148;11.648;2023-04-28T09:57:35;3.40;;;2.17;;
8466;SDS011;4270;48.148;11.648;2023-04-28T10:00:01;4.50;;;2.10;;
8466;SDS011;4270;48.148;11.648;2023-04-28T10:02:26;2.53;;;1.90;;
8466;SDS011;4270;48.148;11.648;2023-04-28T10:04:52;2.17;;;1.57;;
8466;SDS011;4270;48.148;11.648;2023-04-28T10:07:18;1.83;;;1.60;;
8466;SDS011;4270;48.148;11.648;2023-04-28T10:09:45;16.80;;;2.07;;
8466;SDS011;4270;48.148;11.648;2023-04-28T10:12:21;3.20;;;2.10;;
8466;SDS011;4270;48.148;11.648;2023-04-28T10:14:46;1.83;;;1.67;;
8466;SDS011;4270;48.148;11.648;2023-04-28T10:17:14;3.30;;;1.87;;
8466;SDS011;4270;48.148;11.648;2023-04-28T10:19:40;2.60;;;1.50;;
8466;SDS011;4270;48.148;11.648;2023-04-28T10:24:46;1.77;;;1.17;;
8466;SDS011;4270;48.148;11.648;2023-04-28T10:27:17;2.10;;;1.20;;
8466;SDS011;4270;48.148;11.648;2023-04-28T10:29:43;4.13;;;1.23;;
8466;SDS011;4270;48.148;11.648;2023-04-28T10:32:15;1.20;;;1.10;;
8466;SDS011;4270;48.148;11.648;2023-04-28T10:34:40;2.43;;;1.10;;
8466;SDS011;4270;48.148;11.648;2023-04-28T10:37:06;0.73;;;0.73;;
8466;SDS011;4270;48.148;11.648;2023-04-28T10:39:31;2.87;;;1.50;;
8466;SDS011;4270;48.148;11.648;2023-04-28T10:41:56;1.90;;;1.60;;
8466;SDS011;4270;48.148;11.648;2023-04-28T10:49:50;3.00;;;1.30;;
8466;SDS011;4270;48.148;11.648;2023-04-28T10:55:26;2.00;;;1.00;;
8466;SDS011;4270;48.148;11.648;2023-04-28T10:57:44;1.17;;;1.07;;
8466;SDS011;4270;48.148;11.648;2023-04-28T11:00:26;1.00;;;0.80;;
8466;SDS011;4270;48.148;11.648;2023-04-28T11:02:51;1.20;;;0.80;;
8466;SDS011;4270;48.148;11.648;2023-04-28T11:05:18;1.10;;;1.00;;
8466;SDS011;4270;48.148;11.648;2023-04-28T11:08:25;1.07;;;0.97;;
8466;SDS011;4270;48.148;11.648;2023-04-28T11:11:06;1.00;;;0.80;;
8466;SDS011;4270;48.148;11.648;2023-04-28T11:13:26;1.03;;;0.80;;
8466;SDS011;4270;48.148;11.648;2023-04-28T11:16:10;0.90;;;0.80;;
8466;SDS011;4270;48.148;11.648;2023-04-28T11:21:08;1.37;;;0.97;;
8466;SDS011;4270;48.148;11.648;2023-04-28T11:23:36;2.70;;;0.90;;
8466;SDS011;4270;48.148;11.648;2023-04-28T11:26:17;1.00;;;0.90;;
8466;SDS011;4270;48.148;11.648;2023-04-28T11:28:49;1.27;;;0.90;;
8466;SDS011;4270;48.148;11.648;2023-04-28T11:31:18;1.37;;;0.73;;
8466;SDS011;4270;48.148;11.648;2023-04-28T11:33:49;1.23;;;0.80;;
8466;SDS011;4270;48.148;11.648;2023-04-28T11:39:30;1.07;;;0.97;;
8466;SDS011;4270;48.148;11.648;2023-04-28T11:41:59;2.17;;;1.00;;
8466;SDS011;4270;48.148;11.648;2023-04-28T11:44:36;2.07;;;1.10;;
8466;SDS011;4270;48.148;11.648;2023-04-28T11:47:07;1.40;;;1.10;;
8466;SDS011;4270;48.148;11.648;2023-04-28T11:49:47;2.17;;;0.73;;
8466;SDS011;4270;48.148;11.648;2023-04-28T11:52:16;1.60;;;0.73;;
8466;SDS011;4270;48.148;11.648;2023-04-28T11:54:42;3.73;;;1.20;;
8466;SDS011;4270;48.148;11.648;2023-04-28T11:57:15;1.50;;;1.03;;
8466;SDS011;4270;48.148;11.648;2023-04-28T11:59:44;2.13;;;1.10;;
8466;SDS011;4270;48.148;11.648;2023-04-28T12:02:10;2.17;;;1.00;;
8466;SDS011;4270;48.148;11.648;2023-04-28T12:04:39;2.33;;;1.10;;
8466;SDS011;4270;48.148;11.648;2023-04-28T12:09:34;1.90;;;1.00;;
8466;SDS011;4270;48.148;11.648;2023-04-28T12:12:04;1.37;;;1.03;;
8466;SDS011;4270;48.148;11.648;2023-04-28T12:14:30;1.90;;;1.63;;
8466;SDS011;4270;48.148;11.648;2023-04-28T12:16:59;1.30;;;1.10;;
8466;SDS011;4270;48.148;11.648;2023-04-28T12:19:25;2.00;;;1.40;;
8466;SDS011;4270;48.148;11.648;2023-04-28T12:21:57;3.07;;;1.70;;
8466;SDS011;4270;48.148;11.648;2023-04-28T12:24:23;1.60;;;1.50;;
8466;SDS011;4270;48.148;11.648;2023-04-28T12:26:50;3.50;;;1.40;;
8466;SDS011;4270;48.148;11.648;2023-04-28T12:29:34;1.20;;;1.10;;
8466;SDS011;4270;48.148;11.648;2023-04-28T12:32:03;1.80;;;1.40;;
8466;SDS011;4270;48.148;11.648;2023-04-28T12:34:32;1.90;;;1.20;;
8466;SDS011;4270;48.148;11.648;2023-04-28T12:37:01;2.77;;;1.43;;
8466;SDS011;4270;48.148;11.648;2023-04-28T12:39:30;1.70;;;1.30;;
8466;SDS011;4270;48.148;11.648;2023-04-28T12:41:56;1.20;;;0.90;;
8466;SDS011;4270;48.148;11.648;2023-04-28T12:44:24;1.30;;;1.17;;
8466;SDS011;4270;48.148;11.648;2023-04-28T12:46:55;1.80;;;1.33;;
8466;SDS011;4270;48.148;11.648;2023-04-28T12:49:20;1.27;;;1.13;;
8466;SDS011;4270;48.148;11.648;2023-04-28T12:51:49;1.53;;;1.13;;
8466;SDS011;4270;48.148;11.648;2023-04-28T12:54:22;1.20;;;1.10;;
8466;SDS011;4270;48.148;11.648;2023-04-28T12:56:48;1.23;;;0.80;;
8466;SDS011;4270;48.148;11.648;2023-04-28T12:59:22;1.43;;;0.90;;
8466;SDS011;4270;48.148;11.648;2023-04-28T13:01:48;0.90;;;0.80;;
8466;SDS011;4270;48.148;11.648;2023-04-28T13:04:16;2.37;;;1.10;;
8466;SDS011;4270;48.148;11.648;2023-04-28T13:06:42;1.17;;;0.83;;
8466;SDS011;4270;48.148;11.648;2023-04-28T13:09:14;0.90;;;0.70;;
8466;SDS011;4270;48.148;11.648;2023-04-28T13:11:40;1.23;;;1.00;;
8466;SDS011;4270;48.148;11.648;2023-04-28T13:14:08;1.23;;;0.70;;
8466;SDS011;4270;48.148;11.648;2023-04-28T13:16:34;1.20;;;0.70;;
8466;SDS011;4270;48.148;11.648;2023-04-28T13:19:08;1.13;;;0.70;;
8466;SDS011;4270;48.148;11.648;2023-04-28T13:21:39;1.17;;;1.07;;
8466;SDS011;4270;48.148;11.648;2023-04-28T13:24:14;1.00;;;0.70;;
8466;SDS011;4270;48.148;11.648;2023-04-28T13:26:39;1.40;;;0.73;;
8466;SDS011;4270;48.148;11.648;2023-04-28T13:29:08;1.33;;;0.70;;
8466;SDS011;4270;48.148;11.648;2023-04-28T13:31:38;0.80;;;0.70;;
8466;SDS011;4270;48.148;11.648;2023-04-28T13:34:04;0.63;;;0.50;;
8466;SDS011;4270;48.148;11.648;2023-04-28T13:36:30;0.70;;;0.70;;
8466;SDS011;4270;48.148;11.648;2023-04-28T13:39:06;3.03;;;0.70;;
8466;SDS011;4270;48.148;11.648;2023-04-28T13:41:35;1.13;;;0.60;;
8466;SDS011;4270;48.148;11.648;2023-04-28T13:44:00;1.17;;;0.70;;
8466;SDS011;4270;48.148;11.648;2023-04-28T13:46:26;1.73;;;0.93;;
8466;SDS011;4270;48.148;11.648;2023-04-28T13:48:51;2.20;;;1.80;;
8466;SDS011;4270;48.148;11.648;2023-04-28T13:51:16;1.10;;;1.00;;
8466;SDS011;4270;48.148;11.648;2023-04-28T13:53:41;1.63;;;0.77;;
8466;SDS011;4270;48.148;11.648;2023-04-28T13:56:07;2.53;;;1.10;;
8466;SDS011;4270;48.148;11.648;2023-04-28T13:58:32;1.23;;;1.03;;
8466;SDS011;4270;48.148;11.648;2023-04-28T14:00:57;0.60;;;0.60;;
8466;SDS011;4270;48.148;11.648;2023-04-28T14:03:23;0.60;;;0.60;;
8466;SDS011;4270;48.148;11.648;2023-04-28T14:05:50;0.77;;;0.77;;
8466;SDS011;4270;48.148;11.648;2023-04-28T14:08:15;1.50;;;0.60;;
8466;SDS011;4270;48.148;11.648;2023-04-28T14:10:41;1.40;;;0.70;;
8466;SDS011;4270;48.148;11.648;2023-04-28T14:13:06;1.27;;;0.70;;
8466;SDS011;4270;48.148;11.648;2023-04-28T14:15:31;0.87;;;0.67;;
8466;SDS011;4270;48.148;11.648;2023-04-28T14:17:57;1.00;;;0.63;;
8466;SDS011;4270;48.148;11.648;2023-04-28T14:20:22;0.83;;;0.60;;
8466;SDS011;4270;48.148;11.648;2023-04-28T14:22:47;0.87;;;0.70;;
8466;SDS011;4270;48.148;11.648;2023-04-28T14:25:12;1.47;;;0.63;;
8466;SDS011;4270;48.148;11.648;2023-04-28T14:27:37;0.70;;;0.70;;
8466;SDS011;4270;48.148;11.648;2023-04-28T14:30:03;0.97;;;0.90;;
8466;SDS011;4270;48.148;11.648;2023-04-28T14:32:28;0.60;;;0.50;;
8466;SDS011;4270;48.148;11.648;2023-04-28T14:34:54;0.70;;;0.67;;
8466;SDS011;4270;48.148;11.648;2023-04-28T14:37:19;0.50;;;0.50;;
8466;SDS011;4270;48.148;11.648;2023-04-28T14:39:44;1.60;;;0.50;;
8466;SDS011;4270;48.148;11.648;2023-04-28T14:42:09;3.60;;;0.60;;
8466;SDS011;4270;48.148;11.648;2023-04-28T14:44:35;1.23;;;0.80;;
8466;SDS011;4270;48.148;11.648;2023-04-28T14:47:01;0.60;;;0.60;;
8466;SDS011;4270;48.148;11.648;2023-04-28T14:49:26;0.70;;;0.50;;
8466;SDS011;4270;48.148;11.648;2023-04-28T14:51:52;1.40;;;0.87;;
8466;SDS011;4270;48.148;11.648;2023-04-28T14:54:17;0.93;;;0.83;;
8466;SDS011;4270;48.148;11.648;2023-04-28T14:56:43;1.47;;;0.77;;
8466;SDS011;4270;48.148;11.648;2023-04-28T14:59:08;0.70;;;0.67;;
8466;SDS011;4270;48.148;11.648;2023-04-28T15:01:34;0.87;;;0.73;;
8466;SDS011;4270;48.148;11.648;2023-04-28T15:03:59;0.67;;;0.67;;
8466;SDS011;4270;48.148;11.648;2023-04-28T15:06:24;2.00;;;0.67;;
8466;SDS011;4270;48.148;11.648;2023-04-28T15:08:50;0.80;;;0.80;;
8466;SDS011;4270;48.148;11.648;2023-04-28T15:11:16;0.70;;;0.60;;
8466;SDS011;4270;48.148;11.648;2023-04-28T15:13:41;1.53;;;1.10;;